Time;durP1;ratioP1;P1;durP2;ratioP2;P2;SDS_P1;SDS_P2;PMS_P1;PMS_P2;Temp;Humidity;BMP_temperature;BMP_pressure;BME280_temperature;BME280_humidity;BME280_pressure;Samples;Min_cycle;Max_cycle;Signal;HPM_P1;HPM_P2
2021/10/24 00:01:42;;;;;;;24.27;12.20;;;4.00;99.90;;;;;;4452994;32;20139;-70
2021/10/24 00:04:12;;;;;;;28.03;13.40;;;4.00;99.90;;;;;;4453084;32;20189;-69
2021/10/24 00:06:39;;;;;;;23.07;12.83;;;4.00;99.90;;;;;;4451772;32;20453;-69
2021/10/24 00:09:08;;;;;;;26.93;13.20;;;4.00;99.90;;;;;;4453164;32;20197;-69
2021/10/24 00:11:37;;;;;;;27.07;14.10;;;4.00;99.90;;;;;;4454151;32;20135;-70
2021/10/24 00:14:07;;;;;;;29.03;14.70;;;4.10;99.90;;;;;;4453934;32;20152;-70
2021/10/24 00:16:35;;;;;;;30.50;13.70;;;4.10;99.90;;;;;;4453503;32;20154;-68
2021/10/24 00:19:08;;;;;;;31.53;13.97;;;4.10;99.90;;;;;;4453468;32;20183;-69
2021/10/24 00:21:35;;;;;;;30.00;14.70;;;4.10;99.90;;;;;;4453301;32;20135;-69
2021/10/24 00:24:02;;;;;;;30.10;14.53;;;4.10;99.90;;;;;;4451809;32;20179;-69
2021/10/24 00:26:29;;;;;;;32.07;15.00;;;4.10;99.90;;;;;;4453472;32;20256;-70
2021/10/24 00:28:58;;;;;;;27.43;14.90;;;4.00;99.90;;;;;;4453447;32;20131;-70
2021/10/24 00:31:25;;;;;;;27.50;14.63;;;4.00;99.90;;;;;;4452630;32;20119;-69
2021/10/24 00:33:52;;;;;;;31.23;16.00;;;4.00;99.90;;;;;;4453522;32;20420;-69
2021/10/24 00:36:22;;;;;;;30.17;15.83;;;4.00;99.90;;;;;;4452552;32;20154;-70
2021/10/24 00:38:51;;;;;;;28.27;15.03;;;4.10;99.90;;;;;;4452946;32;20166;-70
2021/10/24 00:41:21;;;;;;;30.93;15.00;;;4.00;99.90;;;;;;4453199;32;20132;-70
2021/10/24 00:43:51;;;;;;;28.13;14.83;;;4.10;99.90;;;;;;4451442;32;20464;-69
2021/10/24 00:46:20;;;;;;;31.00;14.83;;;4.00;99.90;;;;;;4453288;32;20158;-70
2021/10/24 00:48:59;;;;;;;28.33;13.93;;;4.00;99.90;;;;;;4448200;32;20129;-70
2021/10/24 00:51:27;;;;;;;26.30;14.43;;;4.00;99.90;;;;;;4442255;32;20278;-69
2021/10/24 00:53:57;;;;;;;29.60;14.47;;;3.90;99.90;;;;;;4442560;32;20207;-70
2021/10/24 00:56:29;;;;;;;26.93;14.50;;;3.90;99.90;;;;;;4442387;32;20171;-70
2021/10/24 00:59:00;;;;;;;25.97;14.43;;;3.90;99.90;;;;;;4440960;32;20188;-69
2021/10/24 01:01:38;;;;;;;29.60;14.37;;;3.90;99.90;;;;;;4441623;32;20147;-71
2021/10/24 01:04:05;;;;;;;27.17;14.57;;;3.90;99.90;;;;;;4442649;32;20161;-70
2021/10/24 01:06:45;;;;;;;27.97;13.97;;;3.90;99.90;;;;;;4441739;32;20123;-69
2021/10/24 01:09:16;;;;;;;30.77;14.13;;;3.90;99.90;;;;;;4440258;32;20322;-70
2021/10/24 01:11:44;;;;;;;28.27;14.20;;;3.90;99.90;;;;;;4440727;32;20131;-70
2021/10/24 01:14:14;;;;;;;29.03;14.57;;;3.90;99.90;;;;;;4442136;32;20127;-69
2021/10/24 01:16:42;;;;;;;26.40;13.60;;;3.90;99.90;;;;;;4441100;32;20189;-69
2021/10/24 01:19:13;;;;;;;29.80;14.00;;;3.90;99.90;;;;;;4441023;32;20147;-69
2021/10/24 01:21:45;;;;;;;30.87;14.50;;;3.90;99.90;;;;;;4442271;32;20158;-69
2021/10/24 01:24:13;;;;;;;30.10;14.33;;;4.00;99.90;;;;;;4440337;32;20165;-70
2021/10/24 01:26:42;;;;;;;26.27;13.77;;;3.90;99.90;;;;;;4440101;32;20363;-69
2021/10/24 01:29:11;;;;;;;31.23;14.97;;;3.90;99.90;;;;;;4439696;32;20187;-70
2021/10/24 01:31:41;;;;;;;30.83;13.70;;;3.80;99.90;;;;;;4442185;32;20227;-70
2021/10/24 01:34:21;;;;;;;25.87;14.10;;;3.90;99.90;;;;;;4448462;32;20472;-69
2021/10/24 01:36:48;;;;;;;27.07;14.50;;;3.90;99.90;;;;;;4443591;32;20135;-70
2021/10/24 01:39:17;;;;;;;32.50;15.63;;;3.90;99.90;;;;;;4441632;32;20414;-70
2021/10/24 01:41:53;;;;;;;28.93;14.43;;;3.90;99.90;;;;;;4441886;32;20123;-71
2021/10/24 01:44:25;;;;;;;32.87;14.80;;;3.80;99.90;;;;;;4441360;32;20129;-70
2021/10/24 01:46:58;;;;;;;29.83;14.53;;;3.80;99.90;;;;;;4440271;32;20533;-70
2021/10/24 01:49:27;;;;;;;28.63;14.13;;;3.80;99.90;;;;;;4440094;32;20135;-70
2021/10/24 01:52:03;;;;;;;31.10;15.30;;;3.90;99.90;;;;;;4441386;32;20166;-69
2021/10/24 01:54:30;;;;;;;31.10;14.87;;;3.90;99.90;;;;;;4441632;32;20171;-70
2021/10/24 01:57:01;;;;;;;31.40;15.43;;;3.90;99.90;;;;;;4441474;32;20135;-69
2021/10/24 01:59:30;;;;;;;32.60;15.17;;;3.90;99.90;;;;;;4440116;32;20159;-70
2021/10/24 02:01:57;;;;;;;33.60;14.47;;;3.90;99.90;;;;;;4438613;32;20127;-70
2021/10/24 02:04:31;;;;;;;31.30;15.97;;;4.00;99.90;;;;;;4439852;32;20491;-70
2021/10/24 02:07:02;;;;;;;28.23;14.70;;;3.90;99.90;;;;;;4441142;32;20160;-71
2021/10/24 02:09:29;;;;;;;34.60;14.83;;;3.90;99.90;;;;;;4439770;32;20447;-70
2021/10/24 02:11:55;;;;;;;28.63;14.90;;;3.90;99.90;;;;;;4439973;32;20437;-70
2021/10/24 02:14:22;;;;;;;32.77;15.63;;;3.90;99.90;;;;;;4439831;32;20156;-70
2021/10/24 02:16:52;;;;;;;28.97;15.33;;;3.90;99.90;;;;;;4441570;32;20189;-70
2021/10/24 02:19:19;;;;;;;33.87;15.80;;;3.90;99.90;;;;;;4439545;32;20181;-70
2021/10/24 02:21:51;;;;;;;36.60;16.00;;;3.80;99.90;;;;;;4440844;32;20125;-70
2021/10/24 02:24:19;;;;;;;35.90;17.23;;;3.80;99.90;;;;;;4441606;32;20148;-70
2021/10/24 02:26:48;;;;;;;37.33;16.83;;;3.80;99.90;;;;;;4441518;32;20181;-70
2021/10/24 02:29:20;;;;;;;34.93;17.00;;;3.80;99.90;;;;;;4441259;32;20131;-69
2021/10/24 02:31:47;;;;;;;44.00;19.27;;;3.60;99.90;;;;;;4440404;32;20180;-68
2021/10/24 02:34:16;;;;;;;36.93;18.40;;;3.60;99.90;;;;;;4440744;32;20180;-70
2021/10/24 02:36:51;;;;;;;39.87;18.80;;;3.60;99.90;;;;;;4439664;32;20182;-70
2021/10/24 02:39:21;;;;;;;41.70;18.73;;;3.70;99.90;;;;;;4441304;32;20424;-69
2021/10/24 02:41:56;;;;;;;45.50;18.80;;;3.60;99.90;;;;;;4441250;32;20340;-71
2021/10/24 02:44:32;;;;;;;45.13;19.13;;;3.60;99.90;;;;;;4440668;32;20206;-70
2021/10/24 02:46:58;;;;;;;47.63;18.80;;;3.60;99.90;;;;;;4440791;32;20131;-69
2021/10/24 02:49:34;;;;;;;44.47;18.93;;;3.60;99.90;;;;;;4441250;32;20449;-69
2021/10/24 02:52:02;;;;;;;46.90;19.77;;;3.50;99.90;;;;;;4441038;32;20178;-70
2021/10/24 02:54:31;;;;;;;49.50;19.37;;;3.50;99.90;;;;;;4441000;32;20206;-70
2021/10/24 02:57:07;;;;;;;47.23;19.20;;;3.50;99.90;;;;;;4439227;32;20180;-70
2021/10/24 02:59:36;;;;;;;48.33;19.83;;;3.60;99.90;;;;;;4438955;32;20524;-70
2021/10/24 03:02:05;;;;;;;53.40;20.30;;;3.60;99.90;;;;;;4440842;32;20150;-70
2021/10/24 03:04:35;;;;;;;50.37;20.50;;;3.60;99.90;;;;;;4440664;32;20541;-69
2021/10/24 03:07:16;;;;;;;47.73;19.77;;;3.60;99.90;;;;;;4440385;32;20689;-71
2021/10/24 03:09:43;;;;;;;56.57;20.17;;;3.60;99.90;;;;;;4440630;32;20156;-70
2021/10/24 03:12:13;;;;;;;47.57;19.37;;;3.60;99.90;;;;;;4439595;32;20217;-70
2021/10/24 03:14:41;;;;;;;46.33;18.97;;;3.60;99.90;;;;;;4440325;32;20422;-70
2021/10/24 03:17:10;;;;;;;61.10;20.67;;;3.50;99.90;;;;;;4439107;32;20140;-70
2021/10/24 03:19:37;;;;;;;48.97;20.37;;;3.60;99.90;;;;;;4439036;32;20343;-69
2021/10/24 03:22:07;;;;;;;57.87;20.10;;;3.50;99.90;;;;;;4440164;32;20180;-69
2021/10/24 03:24:42;;;;;;;53.37;19.17;;;3.50;99.90;;;;;;4438781;32;20188;-69
2021/10/24 03:27:14;;;;;;;55.23;20.93;;;3.60;99.90;;;;;;4440509;32;20135;-68
2021/10/24 03:29:43;;;;;;;53.53;20.60;;;3.60;99.90;;;;;;4438651;32;20585;-70
2021/10/24 03:32:10;;;;;;;48.43;19.83;;;3.60;99.90;;;;;;4439088;32;20184;-70
2021/10/24 03:34:41;;;;;;;49.93;19.93;;;3.70;99.90;;;;;;4438830;32;20200;-70
2021/10/24 03:37:11;;;;;;;53.40;20.07;;;3.60;99.90;;;;;;4440368;32;20159;-70
2021/10/24 03:39:44;;;;;;;48.10;20.00;;;3.70;99.90;;;;;;4439047;32;20211;-69
2021/10/24 03:42:12;;;;;;;55.13;20.63;;;3.70;99.90;;;;;;4440706;32;20216;-70
2021/10/24 03:44:43;;;;;;;45.53;19.10;;;3.70;99.90;;;;;;4440357;32;20505;-70
2021/10/24 03:47:15;;;;;;;48.73;18.30;;;3.60;99.90;;;;;;4440508;32;20463;-70
2021/10/24 03:49:43;;;;;;;51.63;21.03;;;3.60;99.90;;;;;;4440279;32;20127;-70
2021/10/24 03:52:10;;;;;;;52.57;21.07;;;3.60;99.90;;;;;;4440138;32;20496;-70
2021/10/24 03:54:38;;;;;;;51.43;20.83;;;3.60;99.90;;;;;;4439870;32;20210;-70
2021/10/24 03:57:05;;;;;;;53.10;21.33;;;3.80;99.90;;;;;;4438066;32;20145;-70
2021/10/24 03:59:38;;;;;;;56.00;21.23;;;3.90;99.90;;;;;;4438698;32;20139;-69
2021/10/24 04:02:05;;;;;;;47.90;20.13;;;3.90;99.90;;;;;;4438478;32;20159;-69
2021/10/24 04:04:45;;;;;;;51.30;20.57;;;3.90;99.90;;;;;;4439431;32;20135;-69
2021/10/24 04:07:14;;;;;;;44.60;19.57;;;3.80;99.90;;;;;;4440231;32;20163;-70
2021/10/24 04:09:43;;;;;;;48.13;20.53;;;3.90;99.90;;;;;;4440322;32;20132;-70
2021/10/24 04:12:14;;;;;;;48.33;20.97;;;3.90;99.90;;;;;;4440475;32;20189;-70
2021/10/24 04:14:44;;;;;;;49.37;20.67;;;4.00;99.90;;;;;;4440064;32;20142;-70
2021/10/24 04:17:11;;;;;;;57.93;21.13;;;3.90;99.90;;;;;;4438517;32;20452;-70
2021/10/24 04:19:41;;;;;;;51.23;21.20;;;3.90;99.90;;;;;;4440033;32;20170;-69
2021/10/24 04:22:12;;;;;;;49.20;20.60;;;3.90;99.90;;;;;;4438690;32;20534;-69
2021/10/24 04:24:44;;;;;;;44.87;20.70;;;3.90;99.90;;;;;;4439554;32;20234;-68
2021/10/24 04:27:14;;;;;;;55.43;21.57;;;3.90;99.90;;;;;;4441610;32;20484;-69
2021/10/24 04:29:42;;;;;;;48.53;20.20;;;3.80;99.90;;;;;;4441305;32;20471;-68
2021/10/24 04:32:12;;;;;;;50.40;20.23;;;3.80;99.90;;;;;;4441332;32;20188;-71
2021/10/24 04:34:39;;;;;;;46.73;20.83;;;3.90;99.90;;;;;;4440792;32;20131;-70
2021/10/24 04:37:10;;;;;;;46.60;19.30;;;3.90;99.90;;;;;;4441706;32;20178;-70
2021/10/24 04:39:40;;;;;;;45.73;20.63;;;3.90;99.90;;;;;;4442847;32;20415;-70
2021/10/24 04:42:17;;;;;;;48.37;20.07;;;4.00;99.90;;;;;;4442497;32;20191;-69
2021/10/24 04:44:44;;;;;;;49.07;20.33;;;3.90;99.90;;;;;;4441027;32;20185;-69
2021/10/24 04:47:14;;;;;;;49.50;21.37;;;3.90;99.90;;;;;;4442821;32;20131;-69
2021/10/24 04:49:46;;;;;;;51.40;20.50;;;3.90;99.90;;;;;;4442850;32;20140;-69
2021/10/24 04:52:13;;;;;;;46.87;20.30;;;3.90;99.90;;;;;;4441095;32;20155;-70
2021/10/24 04:54:42;;;;;;;49.00;21.10;;;3.90;99.90;;;;;;4440752;32;20126;-69
2021/10/24 04:57:09;;;;;;;54.93;21.73;;;3.80;99.90;;;;;;4442560;32;20131;-69
2021/10/24 04:59:51;;;;;;;49.90;21.17;;;3.80;99.90;;;;;;4442581;32;20139;-69
2021/10/24 05:02:29;;;;;;;55.87;21.80;;;3.90;99.90;;;;;;4440650;32;20136;-69
2021/10/24 05:04:58;;;;;;;53.43;21.87;;;4.00;99.90;;;;;;4441253;32;20339;-70
2021/10/24 05:07:28;;;;;;;56.20;22.80;;;4.00;99.90;;;;;;4442470;32;20203;-69
2021/10/24 05:09:59;;;;;;;54.57;23.47;;;4.00;99.90;;;;;;4442247;32;20438;-71
2021/10/24 05:12:33;;;;;;;52.80;22.17;;;4.00;99.90;;;;;;4440889;32;20135;-71
2021/10/24 05:15:00;;;;;;;55.33;22.13;;;4.00;99.90;;;;;;4440652;32;20148;-69
2021/10/24 05:17:32;;;;;;;54.40;22.73;;;4.00;99.90;;;;;;4440804;32;20140;-71
2021/10/24 05:19:59;;;;;;;57.47;21.87;;;4.00;99.90;;;;;;4442338;32;20138;-71
2021/10/24 05:22:33;;;;;;;50.97;21.87;;;3.90;99.90;;;;;;4442294;32;20150;-71
2021/10/24 05:25:05;;;;;;;53.00;21.23;;;3.90;99.90;;;;;;4440813;32;20505;-72
2021/10/24 05:27:32;;;;;;;53.20;21.70;;;3.80;99.90;;;;;;4440627;32;20131;-71
2021/10/24 05:30:03;;;;;;;50.73;21.43;;;3.80;99.90;;;;;;4441361;32;20131;-71
2021/10/24 05:32:31;;;;;;;54.23;22.17;;;3.80;99.90;;;;;;4443983;32;20195;-71
2021/10/24 05:35:20;;;;;;;63.40;23.73;;;3.90;99.90;;;;;;4446996;32;20174;-70
2021/10/24 05:37:58;;;;;;;57.53;22.23;;;3.90;99.90;;;;;;4441186;32;20162;-71
2021/10/24 05:40:28;;;;;;;57.93;21.73;;;3.80;99.90;;;;;;4441840;32;20195;-70
2021/10/24 05:43:03;;;;;;;57.03;22.27;;;3.80;99.90;;;;;;4439850;32;20148;-71
2021/10/24 05:45:32;;;;;;;52.07;21.37;;;3.80;99.90;;;;;;4440350;32;20412;-71
2021/10/24 05:48:01;;;;;;;56.03;21.70;;;3.80;99.90;;;;;;4441963;32;20139;-71
2021/10/24 05:50:42;;;;;;;54.97;20.37;;;3.80;99.90;;;;;;4440322;32;20165;-71
2021/10/24 05:53:12;;;;;;;53.07;20.37;;;3.80;99.90;;;;;;4440107;32;20234;-71
2021/10/24 05:55:47;;;;;;;50.60;20.00;;;3.80;99.90;;;;;;4440235;32;20182;-71
2021/10/24 05:58:14;;;;;;;46.20;19.50;;;3.90;99.90;;;;;;4440022;32;20177;-70
2021/10/24 06:00:44;;;;;;;58.57;20.63;;;4.00;99.90;;;;;;4439762;32;20208;-70
2021/10/24 06:03:14;;;;;;;55.87;20.63;;;4.00;99.90;;;;;;4439965;32;20324;-70
2021/10/24 06:05:49;;;;;;;51.03;19.53;;;3.90;99.90;;;;;;4446656;32;20145;-71
2021/10/24 06:08:23;;;;;;;56.23;19.23;;;3.90;99.90;;;;;;4440907;32;20204;-71
2021/10/24 06:11:27;;;;;;;57.63;19.77;;;3.80;99.90;;;;;;4441351;32;20131;-71
2021/10/24 06:13:57;;;;;;;48.70;19.27;;;3.70;99.90;;;;;;4439624;32;20450;-70
2021/10/24 06:16:27;;;;;;;49.90;20.10;;;3.80;99.90;;;;;;4439567;32;20147;-70
2021/10/24 06:19:00;;;;;;;51.30;20.07;;;3.90;99.90;;;;;;4440985;32;20310;-69
2021/10/24 06:21:34;;;;;;;63.73;21.07;;;3.90;99.90;;;;;;4440694;32;20196;-69
2021/10/24 06:24:02;;;;;;;58.20;20.83;;;4.00;99.90;;;;;;4439869;32;20139;-70
2021/10/24 06:26:32;;;;;;;46.23;19.13;;;3.90;99.90;;;;;;4441540;32;20175;-70
2021/10/24 06:29:02;;;;;;;46.27;18.67;;;3.90;99.90;;;;;;4441112;32;20175;-70
2021/10/24 06:31:32;;;;;;;48.77;18.60;;;3.90;99.90;;;;;;4439439;32;20182;-70
2021/10/24 06:34:03;;;;;;;57.23;21.70;;;4.00;99.90;;;;;;4439651;32;20202;-70
2021/10/24 06:36:35;;;;;;;54.57;21.90;;;4.10;99.90;;;;;;4439764;32;20139;-70
2021/10/24 06:39:03;;;;;;;54.87;21.97;;;4.10;99.90;;;;;;4439389;32;20232;-70
2021/10/24 06:41:47;;;;;;;53.43;20.50;;;4.10;99.90;;;;;;4440987;32;20217;-70
2021/10/24 06:44:17;;;;;;;49.60;20.50;;;4.10;99.90;;;;;;4444024;32;20362;-71
2021/10/24 06:46:49;;;;;;;46.37;20.33;;;4.10;99.90;;;;;;4443775;32;20253;-70
2021/10/24 06:49:24;;;;;;;54.37;20.40;;;4.10;99.90;;;;;;4439135;32;20170;-71
2021/10/24 06:51:54;;;;;;;47.03;18.27;;;4.20;99.90;;;;;;4441108;32;20239;-71
2021/10/24 06:54:27;;;;;;;37.67;16.93;;;4.30;99.90;;;;;;4439492;32;20193;-71
2021/10/24 06:56:59;;;;;;;41.07;17.47;;;4.30;99.90;;;;;;4439952;32;20398;-70
2021/10/24 06:59:28;;;;;;;39.80;17.17;;;4.30;99.90;;;;;;4439984;32;20200;-70
2021/10/24 07:01:56;;;;;;;40.60;17.07;;;4.40;99.90;;;;;;4438366;32;20219;-70
2021/10/24 07:04:31;;;;;;;47.73;18.80;;;4.40;99.90;;;;;;4440882;32;20200;-71
2021/10/24 07:07:10;;;;;;;43.47;18.37;;;4.30;99.90;;;;;;4438877;32;20127;-71
2021/10/24 07:09:40;;;;;;;41.60;17.63;;;4.30;99.90;;;;;;4439300;32;20134;-70
2021/10/24 07:12:17;;;;;;;45.23;18.87;;;4.30;99.90;;;;;;4439073;32;20190;-69
2021/10/24 07:14:51;;;;;;;42.60;18.43;;;4.30;99.90;;;;;;4438770;32;20466;-69
2021/10/24 07:17:20;;;;;;;44.10;17.80;;;4.20;99.90;;;;;;4440914;32;20158;-70
2021/10/24 07:19:53;;;;;;;45.40;18.93;;;4.20;99.90;;;;;;4439006;32;20211;-70
2021/10/24 07:22:23;;;;;;;47.47;19.60;;;4.30;99.90;;;;;;4440686;32;20285;-70
2021/10/24 07:24:53;;;;;;;49.97;20.37;;;4.30;99.90;;;;;;4439465;32;20152;-70
2021/10/24 07:27:31;;;;;;;47.57;19.70;;;4.30;99.90;;;;;;4438826;32;20269;-70
2021/10/24 07:29:58;;;;;;;47.73;19.90;;;4.30;99.90;;;;;;4440443;32;20137;-70
2021/10/24 07:32:34;;;;;;;44.30;18.87;;;4.40;99.90;;;;;;4438646;32;20411;-71
2021/10/24 07:35:12;;;;;;;46.30;19.30;;;4.50;99.90;;;;;;4447210;32;20531;-70
2021/10/24 07:37:42;;;;;;;38.80;18.27;;;4.50;99.90;;;;;;4438208;32;20177;-70
2021/10/24 07:40:21;;;;;;;45.97;19.03;;;4.60;99.90;;;;;;4438874;32;20143;-71
2021/10/24 07:42:49;;;;;;;43.77;19.20;;;4.60;99.90;;;;;;4438977;32;20203;-69
2021/10/24 07:45:18;;;;;;;41.97;19.20;;;4.50;99.90;;;;;;4439608;32;20131;-69
2021/10/24 07:47:46;;;;;;;47.17;19.37;;;4.50;99.90;;;;;;4439058;32;20143;-68
2021/10/24 07:50:15;;;;;;;47.40;20.83;;;4.60;99.90;;;;;;4438197;32;20223;-70
2021/10/24 07:52:42;;;;;;;46.87;19.83;;;4.70;99.90;;;;;;4438461;32;20179;-70
2021/10/24 07:55:12;;;;;;;43.07;20.40;;;4.80;99.90;;;;;;4440159;32;20162;-71
2021/10/24 07:57:42;;;;;;;44.27;19.03;;;4.90;99.90;;;;;;4440282;32;20163;-70
2021/10/24 08:00:12;;;;;;;40.03;18.93;;;5.00;99.90;;;;;;4439588;32;20439;-70
2021/10/24 08:02:38;;;;;;;42.73;19.27;;;5.00;99.90;;;;;;4441417;32;20147;-70
2021/10/24 08:05:13;;;;;;;38.87;18.20;;;5.10;99.90;;;;;;4441572;32;20141;-70
2021/10/24 08:07:43;;;;;;;39.43;18.50;;;5.00;99.90;;;;;;4443151;32;20221;-70
2021/10/24 08:10:20;;;;;;;41.67;17.73;;;4.90;99.90;;;;;;4442936;32;20158;-70
2021/10/24 08:12:50;;;;;;;40.73;17.53;;;4.90;99.90;;;;;;4442715;32;20225;-69
2021/10/24 08:15:29;;;;;;;33.03;16.30;;;4.80;99.90;;;;;;4442548;32;20200;-70
2021/10/24 08:18:00;;;;;;;33.37;15.80;;;4.80;99.90;;;;;;4442349;32;20156;-70
2021/10/24 08:20:27;;;;;;;32.90;15.17;;;4.90;99.90;;;;;;4441595;32;20490;-69
2021/10/24 08:22:56;;;;;;;32.20;15.77;;;4.90;99.90;;;;;;4442338;32;20131;-69
2021/10/24 08:25:29;;;;;;;34.83;16.40;;;4.90;99.90;;;;;;4440885;32;20139;-70
2021/10/24 08:28:03;;;;;;;35.37;16.13;;;5.00;99.90;;;;;;4441210;32;20186;-68
2021/10/24 08:30:33;;;;;;;34.13;16.33;;;5.10;99.90;;;;;;4442603;32;20147;-70
2021/10/24 08:33:09;;;;;;;36.87;16.57;;;5.20;99.90;;;;;;4441060;32;20235;-66
2021/10/24 08:35:36;;;;;;;38.97;16.60;;;5.30;99.90;;;;;;4442920;32;20140;-67
2021/10/24 08:38:13;;;;;;;36.03;17.17;;;5.40;99.90;;;;;;4441724;32;20195;-67
2021/10/24 08:40:51;;;;;;;34.13;16.23;;;5.30;99.90;;;;;;4440889;32;20144;-67
2021/10/24 08:43:19;;;;;;;34.13;15.90;;;5.30;99.90;;;;;;4441251;32;20192;-67
2021/10/24 08:45:49;;;;;;;31.03;15.10;;;5.30;99.90;;;;;;4442388;32;20135;-68
2021/10/24 08:48:25;;;;;;;27.67;14.40;;;5.50;99.90;;;;;;4441190;32;20139;-68
2021/10/24 08:50:52;;;;;;;29.90;14.63;;;5.70;99.90;;;;;;4441102;32;20391;-66
2021/10/24 08:53:40;;;;;;;26.93;13.80;;;5.70;99.90;;;;;;4442965;32;20387;-67
2021/10/24 08:56:23;;;;;;;26.50;13.93;;;5.60;99.90;;;;;;4441023;32;20198;-68
2021/10/24 08:58:51;;;;;;;26.23;12.70;;;5.70;99.90;;;;;;4441498;32;20189;-68
2021/10/24 09:01:35;;;;;;;23.03;12.33;;;5.70;99.90;;;;;;4442508;32;20142;-67
2021/10/24 09:04:09;;;;;;;24.60;12.83;;;5.90;99.90;;;;;;4442470;32;20177;-67
2021/10/24 09:06:59;;;;;;;26.13;13.03;;;6.20;99.90;;;;;;4414177;32;20214;-70
2021/10/24 09:09:33;;;;;;;26.07;13.27;;;6.50;99.90;;;;;;4381469;32;20194;-68
2021/10/24 09:12:09;;;;;;;32.30;14.17;;;6.70;99.90;;;;;;4379702;32;20341;-67
2021/10/24 09:14:54;;;;;;;23.47;13.20;;;6.80;99.90;;;;;;4379887;32;20133;-67
2021/10/24 09:17:32;;;;;;;27.87;13.73;;;7.00;99.90;;;;;;4381394;32;20165;-68
2021/10/24 09:20:10;;;;;;;28.67;13.43;;;6.90;99.90;;;;;;4379723;32;20146;-67
2021/10/24 09:22:45;;;;;;;26.47;13.60;;;6.90;99.90;;;;;;4380857;32;20504;-67
2021/10/24 09:25:23;;;;;;;27.67;13.87;;;6.60;99.90;;;;;;4389674;32;20186;-67
2021/10/24 09:28:03;;;;;;;30.27;14.03;;;6.80;99.90;;;;;;4380314;32;20193;-68
2021/10/24 09:30:40;;;;;;;27.73;14.33;;;6.60;99.90;;;;;;4378549;32;20250;-68
2021/10/24 09:33:17;;;;;;;28.23;14.03;;;6.80;99.90;;;;;;4381279;32;20183;-66
2021/10/24 09:35:50;;;;;;;25.43;13.77;;;7.10;99.90;;;;;;4381102;32;20141;-68
2021/10/24 09:38:26;;;;;;;24.03;13.00;;;7.40;99.90;;;;;;4380730;32;20170;-67
2021/10/24 09:41:00;;;;;;;25.57;13.30;;;7.80;99.90;;;;;;4379388;32;20147;-68
2021/10/24 09:43:37;;;;;;;24.07;12.40;;;8.10;99.90;;;;;;4381337;32;20192;-68
2021/10/24 09:46:15;;;;;;;25.40;13.23;;;8.30;99.90;;;;;;4379214;32;20547;-68
2021/10/24 09:48:52;;;;;;;25.37;13.10;;;8.20;99.90;;;;;;4380902;32;20183;-70
2021/10/24 09:51:33;;;;;;;28.13;13.33;;;8.30;99.90;;;;;;4381047;32;20207;-69
2021/10/24 09:54:18;;;;;;;23.23;12.47;;;8.80;99.90;;;;;;4379642;32;20500;-69
2021/10/24 09:56:47;;;;;;;24.70;13.17;;;9.10;99.90;;;;;;4379256;32;20144;-68
2021/10/24 09:59:19;;;;;;;24.13;12.60;;;9.00;99.90;;;;;;4379373;32;20156;-69
2021/10/24 10:01:51;;;;;;;24.20;13.17;;;9.20;99.90;;;;;;4380809;32;20507;-68
2021/10/24 10:04:24;;;;;;;22.37;11.87;;;9.80;99.90;;;;;;4379024;32;20148;-67
2021/10/24 10:06:53;;;;;;;21.70;11.57;;;10.60;99.90;;;;;;4379155;32;20162;-68
2021/10/24 10:09:23;;;;;;;23.90;11.97;;;11.00;99.90;;;;;;4379164;32;20336;-68
2021/10/24 10:11:57;;;;;;;22.27;11.57;;;11.50;99.90;;;;;;4380005;32;20235;-69
2021/10/24 10:14:29;;;;;;;22.77;11.80;;;11.80;99.90;;;;;;4378752;32;20435;-69
2021/10/24 10:17:14;;;;;;;22.13;11.77;;;11.50;99.90;;;;;;4378953;32;20451;-67
2021/10/24 10:19:44;;;;;;;19.87;11.20;;;12.20;99.90;;;;;;4380530;32;20179;-68
2021/10/24 10:22:24;;;;;;;22.57;11.13;;;12.50;99.90;;;;;;4380067;32;20151;-68
2021/10/24 10:25:09;;;;;;;18.97;10.30;;;13.00;99.90;;;;;;4380603;32;20133;-68
2021/10/24 10:27:46;;;;;;;19.63;10.77;;;12.80;99.90;;;;;;4379059;32;20352;-67
2021/10/24 10:30:31;;;;;;;19.60;10.80;;;13.30;99.90;;;;;;4379784;32;20198;-68
2021/10/24 10:33:01;;;;;;;19.07;10.60;;;14.00;99.90;;;;;;4380525;32;20145;-68
2021/10/24 10:35:28;;;;;;;20.87;11.30;;;13.50;99.90;;;;;;4380538;32;20198;-67
2021/10/24 10:38:03;;;;;;;20.10;11.10;;;13.90;99.90;;;;;;4379496;32;20167;-67
2021/10/24 10:41:01;;;;;;;18.57;10.70;;;14.40;99.90;;;;;;4378295;32;20163;-67
2021/10/24 10:43:37;;;;;;;18.63;11.10;;;14.30;99.90;;;;;;4379113;32;20183;-67
2021/10/24 10:46:07;;;;;;;21.37;10.50;;;13.70;99.90;;;;;;4379372;32;20175;-67
2021/10/24 10:48:46;;;;;;;21.93;11.47;;;13.90;99.90;;;;;;4379345;32;20124;-67
2021/10/24 10:51:25;;;;;;;18.83;11.10;;;14.40;99.90;;;;;;4378557;32;20132;-67
2021/10/24 10:54:01;;;;;;;22.47;11.83;;;14.50;99.90;;;;;;4379511;32;20403;-68
2021/10/24 10:56:53;;;;;;;23.40;12.30;;;14.40;99.90;;;;;;4379484;32;20182;-68
2021/10/24 10:59:35;;;;;;;20.97;12.13;;;13.90;99.90;;;;;;4378321;32;20143;-67
2021/10/24 11:02:36;;;;;;;21.47;12.13;;;13.60;99.90;;;;;;4379941;32;20520;-67
2021/10/24 11:05:06;;;;;;;20.13;11.40;;;12.70;99.90;;;;;;4378053;32;20456;-67
2021/10/24 11:07:49;;;;;;;21.57;11.43;;;12.50;99.90;;;;;;4378970;32;20152;-67
2021/10/24 11:10:37;;;;;;;21.63;11.73;;;12.50;99.90;;;;;;4379592;32;20178;-67
2021/10/24 11:13:31;;;;;;;20.30;10.63;;;13.10;99.90;;;;;;4378154;32;20167;-67
2021/10/24 11:16:35;;;;;;;19.27;10.30;;;13.70;99.90;;;;;;4377490;32;20400;-68
2021/10/24 11:19:29;;;;;;;17.43;9.87;;;13.90;99.90;;;;;;4379721;32;20211;-68
2021/10/24 11:22:03;;;;;;;19.27;10.37;;;14.30;99.90;;;;;;4378055;32;20206;-69
2021/10/24 11:24:51;;;;;;;16.57;9.57;;;13.90;99.90;;;;;;4379654;32;20183;-68
2021/10/24 11:27:26;;;;;;;17.33;9.50;;;13.70;99.90;;;;;;4377624;32;20243;-67
2021/10/24 11:30:04;;;;;;;19.03;9.80;;;14.00;99.90;;;;;;4377669;32;20532;-68
2021/10/24 11:32:44;;;;;;;17.23;9.57;;;14.80;99.90;;;;;;4379654;32;20140;-67
2021/10/24 11:35:16;;;;;;;15.37;9.00;;;15.90;99.90;;;;;;4377792;32;20144;-67
2021/10/24 11:37:54;;;;;;;16.97;9.30;;;16.30;99.90;;;;;;4378704;32;20170;-68
2021/10/24 11:40:36;;;;;;;16.43;9.73;;;17.20;99.70;;;;;;4379595;32;20210;-69
2021/10/24 11:43:10;;;;;;;16.27;9.30;;;17.70;96.40;;;;;;4377315;32;20158;-68
2021/10/24 11:45:51;;;;;;;15.73;9.67;;;18.00;94.60;;;;;;4377920;32;20197;-67
2021/10/24 11:48:24;;;;;;;18.97;10.13;;;18.30;94.90;;;;;;4379753;32;20516;-67
2021/10/24 11:50:54;;;;;;;15.43;9.50;;;18.70;94.00;;;;;;4377030;32;20163;-67
2021/10/24 11:53:46;;;;;;;15.33;9.83;;;19.10;92.40;;;;;;4379287;32;20160;-67
2021/10/24 11:56:38;;;;;;;16.63;9.33;;;18.10;92.40;;;;;;4378708;32;20202;-67
2021/10/24 11:59:37;;;;;;;16.90;9.33;;;18.20;92.80;;;;;;4378716;32;20136;-67
2021/10/24 12:02:14;;;;;;;15.47;8.57;;;17.60;92.10;;;;;;4379292;32;20200;-68
2021/10/24 12:04:52;;;;;;;11.93;8.17;;;17.10;93.70;;;;;;4378170;32;20170;-68
2021/10/24 12:07:22;;;;;;;14.77;8.77;;;17.70;92.80;;;;;;4377523;32;20160;-66
2021/10/24 12:09:53;;;;;;;14.70;8.07;;;17.30;91.70;;;;;;4377807;32;20209;-67
2021/10/24 12:12:41;;;;;;;14.50;8.47;;;18.00;92.20;;;;;;4379488;32;20380;-68
2021/10/24 12:15:15;;;;;;;14.47;8.10;;;18.70;90.80;;;;;;4379239;32;20174;-66
2021/10/24 12:17:45;;;;;;;15.77;8.80;;;18.70;88.20;;;;;;4379509;32;20498;-65
2021/10/24 12:20:30;;;;;;;14.40;8.77;;;18.30;90.20;;;;;;4385417;32;20427;-66
2021/10/24 12:23:21;;;;;;;16.40;8.97;;;18.70;87.80;;;;;;4377483;32;20584;-65
2021/10/24 12:26:04;;;;;;;13.00;7.90;;;18.10;89.80;;;;;;4377149;32;20242;-65
2021/10/24 12:28:42;;;;;;;13.37;7.53;;;18.60;88.50;;;;;;4378099;32;20147;-66
2021/10/24 12:31:15;;;;;;;12.90;8.33;;;18.90;87.90;;;;;;4377509;32;20209;-65
2021/10/24 12:33:46;;;;;;;14.43;8.27;;;17.90;86.60;;;;;;4377516;32;20139;-65
2021/10/24 12:36:34;;;;;;;13.70;7.67;;;17.20;90.80;;;;;;4379149;32;20182;-64
2021/10/24 12:39:24;;;;;;;13.33;7.83;;;17.40;90.80;;;;;;4378507;32;20247;-67
2021/10/24 12:41:53;;;;;;;13.00;7.70;;;18.10;88.90;;;;;;4377067;32;20181;-66
2021/10/24 12:44:23;;;;;;;10.82;6.82;;;18.40;85.80;;;;;;4378443;32;20053;-66
2021/10/24 12:46:56;;;;;;;11.80;6.83;;;17.70;86.10;;;;;;4379732;32;20175;-66
2021/10/24 12:49:25;;;;;;;11.07;6.33;;;17.30;86.60;;;;;;4381752;32;20186;-66
2021/10/24 12:52:13;;;;;;;11.00;6.73;;;17.40;88.00;;;;;;4381262;32;20407;-65
2021/10/24 12:54:48;;;;;;;10.37;6.80;;;17.00;88.20;;;;;;4381642;32;20147;-65
2021/10/24 12:57:23;;;;;;;11.33;6.60;;;16.50;90.00;;;;;;4381672;32;20181;-66
2021/10/24 12:59:54;;;;;;;11.23;6.50;;;16.20;90.80;;;;;;4381385;32;20225;-65
2021/10/24 13:02:26;;;;;;;8.03;5.40;;;15.40;91.50;;;;;;4392865;32;20193;-67
2021/10/24 13:04:57;;;;;;;12.53;6.47;;;14.60;91.90;;;;;;4381666;32;20225;-67
2021/10/24 13:07:29;;;;;;;13.97;7.07;;;14.20;93.80;;;;;;4379860;32;20178;-65